• Join FlightAware (Why Join?)
  • Login
  • US Flag GB Flag 
00:41 EDT


 

Airport Tracker/Info


-or-


 

Live Flight TrackerFlight Track Log ✈ JUS327 ✈ 11-May-2013 ✈ KLRD - KYIP

Flight Track Log - Related Links

Times and Time Zones

All times are in EDT time to prevent confusion due to time zone crossing. See the JUS327 flight status page for this flight to view local times or setup timezone preferences in your user account.

Time Position Orientation Groundspeed Altitude Reporting Facility
EDT Latitude Longitude Course Direction KTS MPH feet Rate Location/Type
19:27 27.6083 -99.4461 34° Northeast 199 229 2,900  Level Houston Center
19:28 27.6547 -99.4103 34° Northeast 200 230 4,500 1,800 Climbing Houston Center
19:29 27.7222 -99.3792 22° Northeast 238 274 6,600 2,340 Climbing Houston Center
19:30 27.8064 -99.3375 24° Northeast 263 303 9,300 2,160 Climbing Houston Center
19:31 27.8806 -99.3014 23° Northeast 275 316 11,100 1,380 Climbing Houston Center
19:32 27.9689 -99.2597 23° Northeast 324 373 12,200 1,440 Climbing Houston Center
19:33 28.0633 -99.2167 22° Northeast 358 412 14,100 1,680 Climbing Houston Center
19:34 28.1578 -99.1653 26° Northeast 373 429 15,700 1,500 Climbing Houston Center
19:35 28.2592 -99.1175 23° Northeast 390 449 17,200 1,320 Climbing Houston Center
19:36 28.3656 -99.0686 22° Northeast 408 470 18,500 1,260 Climbing Houston Center
19:37 28.4739 -99.0144 24° Northeast 422 486 19,800 1,320 Climbing Houston Center
19:38 28.5894 -98.9689 19° North 436 502 21,200 1,320 Climbing Houston Center
19:39 28.7172 -98.9008 25° Northeast 450 518 22,600 1,260 Climbing Houston Center
19:40 28.8439 -98.8436 22° Northeast 454 522 23,800 1,020 Climbing Houston Center
19:41 28.9653 -98.7900 21° North 466 536 24,800 960 Climbing Houston Center
19:42 29.0847 -98.7181 28° Northeast 484 557 25,800 840 Climbing Houston Center
19:43 29.1808 -98.5858 50° Northeast 505 581 26,600 900 Climbing Houston Center
19:44 29.2406 -98.4372 65° Northeast 515 593 27,700 900 Climbing Houston Center
19:45 29.3056 -98.2903 63° Northeast 520 598 28,500 780 Climbing Houston Center
19:46 29.3803 -98.1339 61° Northeast 523 602 29,400 780 Climbing Houston Center
19:47 29.4489 -97.9858 62° Northeast 528 608 30,200 660 Climbing Houston Center
19:48 29.5192 -97.8375 61° Northeast 530 610 30,800 480 Climbing Houston Center
19:49 29.5842 -97.6983 62° Northeast 546 628 31,200 480 Climbing Houston Center
19:50 29.6561 -97.5453 62° Northeast 545 627 31,800 480 Climbing Houston Center
19:51 29.7353 -97.3933 59° Northeast 548 631 32,300 600 Climbing Houston Center
19:52 29.8292 -97.2514 53° Northeast 551 634 33,100 780 Climbing Houston Center
19:53 29.9392 -97.0803 53° Northeast 550 633 33,900 600 Climbing Houston Center
19:54 30.0194 -96.9306 58° Northeast 550 633 34,400 480 Climbing Houston Center
19:55 30.1122 -96.7903 53° Northeast 552 635 34,900 240 Climbing Houston Center
19:56 30.2394 -96.6789 37° Northeast 549 632 35,000  Climbing Houston Center
19:57 30.3750 -96.6106 24° Northeast 535 616 35,000  Level Houston Center
19:58 30.5136 -96.5642 16° North 519 597 35,000  Level Houston Center
19:59 30.6519 -96.5283 13° North 509 586 35,000  Level Houston Center
20:00 30.7861 -96.4778 18° North 514 592 35,000  Level Houston Center
20:01 30.9133 -96.3850 32° Northeast 546 628 35,000  Level Houston Center
20:02 31.0414 -96.3078 27° Northeast 521 600 35,000  Level Houston Center
20:03 31.1761 -96.2342 25° Northeast 526 605 35,000  Level Houston Center
20:04 31.3044 -96.1422 31° Northeast 534 615 35,000  Level Houston Center
20:05 31.3714 -96.0947 31° Northeast 525 604 35,000  Level Fort Worth Center
20:06 31.5061 -96.0147 27° Northeast 525 604 35,000  Level Fort Worth Center
20:07 31.6325 -95.9275 30° Northeast 532 612 35,000  Level Fort Worth Center
20:08 31.7422 -95.8547 29° Northeast 520 598 35,000  Level Fort Worth Center
20:09 31.8686 -95.7769 28° Northeast 514 592 35,000  Level Fort Worth Center
20:10 31.9928 -95.6864 32° Northeast 514 592 35,000  Level Fort Worth Center
20:11 32.1169 -95.6081 28° Northeast 514 592 35,000  Level Fort Worth Center
20:12 32.2411 -95.5269 29° Northeast 508 585 35,000  Level Fort Worth Center
20:13 32.3606 -95.4361 33° Northeast 508 585 35,000  Level Fort Worth Center
20:14 32.4908 -95.3469 30° Northeast 501 577 35,000  Level Fort Worth Center
20:15 32.6147 -95.2653 29° Northeast 496 571 35,000  Level Fort Worth Center
20:16 32.7342 -95.1758 32° Northeast 496 571 35,000  Level Fort Worth Center
20:17 32.8600 -95.0986 27° Northeast 504 580 35,000  Level Fort Worth Center
20:18 32.9794 -95.0114 31° Northeast 498 573 35,000  Level Fort Worth Center
20:19 33.1011 -94.9261 30° Northeast 498 573 35,000  Level Fort Worth Center
20:20 33.2269 -94.8506 27° Northeast 498 573 35,000  Level Fort Worth Center
20:21 33.3461 -94.7603 32° Northeast 498 573 35,000  Level Fort Worth Center
20:22 33.4694 -94.6769 29° Northeast 498 573 35,000  Level Fort Worth Center
20:23 33.5908 -94.6008 28° Northeast 498 573 35,000  Level Fort Worth Center
20:24 33.7119 -94.5094 32° Northeast 497 572 35,000  Level Fort Worth Center
20:25 33.8208 -94.4333 30° Northeast 497 572 35,000  Level Fort Worth Center
20:26 33.9992 -94.3100 30° Northeast 502 578 35,000  Level Kansas City Center
20:27 34.1106 -94.2281 31° Northeast 509 586 35,000  Level Memphis Center
20:28 34.2319 -94.1506 28° Northeast 496 571 35,000  Level Memphis Center
20:29 34.3494 -94.0628 32° Northeast 496 571 35,000  Level Memphis Center
20:30 34.4503 -93.9714 37° Northeast 496 571 35,000  Level Memphis Center
20:31 34.5733 -93.8958 27° Northeast 496 571 35,000  Level Memphis Center
20:32 34.6925 -93.8150 29° Northeast 485 558 35,000  Level Memphis Center
20:33 34.8056 -93.7261 33° Northeast 485 558 35,000  Level Memphis Center
20:34 34.9264 -93.6497 27° Northeast 479 551 35,000  Level Memphis Center
20:35 35.0456 -93.5656 30° Northeast 479 551 35,000  Level Memphis Center
20:36 35.1542 -93.4758 34° Northeast 479 551 35,000  Level Memphis Center
20:37 35.2706 -93.4014 28° Northeast 474 545 35,000  Level Memphis Center
20:38 35.3939 -93.3142 30° Northeast 469 540 35,000  Level Memphis Center
20:39 35.5022 -93.2236 34° Northeast 469 540 35,000  Level Memphis Center
20:40 35.6164 -93.1533 27° Northeast 463 533 35,000  Level Memphis Center
20:41 35.7228 -93.0625 35° Northeast 463 533 35,000  Level Memphis Center
20:42 35.8331 -92.9764 32° Northeast 463 533 35,000  Level Memphis Center
20:43 35.9450 -92.9031 28° Northeast 458 527 35,000  Level Memphis Center
20:44 36.0511 -92.8139 34° Northeast 458 527 35,000  Level Memphis Center
20:45 36.1631 -92.7325 30° Northeast 458 527 35,000  Level Memphis Center
20:46 36.2731 -92.6533 30° Northeast 458 527 35,000  Level Memphis Center
20:48 36.4408 -92.5131 34° Northeast 467 537 35,000  Level Kansas City Center
20:49 36.5542 -92.4364 29° Northeast 467 537 35,000  Level Kansas City Center
20:50 36.6703 -92.3453 32° Northeast 464 534 35,000  Level Kansas City Center
20:51 36.7794 -92.2547 34° Northeast 468 539 35,000  Level Kansas City Center
20:52 36.8953 -92.1806 27° Northeast 468 539 35,000  Level Kansas City Center
20:53 37.0033 -92.0889 34° Northeast 468 539 35,000  Level Kansas City Center
20:54 37.1025 -91.9775 42° Northeast 475 547 35,000  Level Kansas City Center
20:55 37.2178 -91.8392 44° Northeast 478 550 35,000  Level Kansas City Center
20:56 37.3239 -91.7392 37° Northeast 477 549 35,000  Level Kansas City Center
20:57 37.4214 -91.6228 43° Northeast 481 554 35,000  Level Kansas City Center
20:58 37.5208 -91.5106 42° Northeast 478 550 35,000  Level Kansas City Center
20:59 37.6256 -91.4042 39° Northeast 481 554 35,000  Level Kansas City Center
21:00 37.7228 -91.2842 44° Northeast 487 560 35,000  Level Kansas City Center
21:01 37.8242 -91.1697 42° Northeast 487 560 35,000  Level Kansas City Center
21:02 37.9358 -91.0547 39° Northeast 496 571 35,000  Level Kansas City Center
21:03 38.0336 -90.9297 45° Northeast 499 574 35,000  Level Kansas City Center
21:04 38.1397 -90.8189 39° Northeast 495 570 35,000  Level Kansas City Center
21:05 38.2442 -90.7006 42° Northeast 502 578 35,000  Level Kansas City Center
21:06 38.3428 -90.5717 46° Northeast 508 585 35,000  Level Kansas City Center
21:07 38.4650 -90.4258 43° Northeast 508 585 35,000  Level Kansas City Center
21:08 38.5472 -90.2728 55° Northeast 526 605 35,000  Level Kansas City Center
21:09 38.6422 -90.1450 46° Northeast 512 589 35,000  Level Kansas City Center
21:10 38.7450 -90.0086 46° Northeast 513 590 35,000  Level Kansas City Center
21:11 38.8272 -89.8706 53° Northeast 522 601 35,000  Level Kansas City Center
21:12 38.9378 -89.7219 46° Northeast 505 581 35,000  Level Kansas City Center
21:13 39.0311 -89.5836 49° Northeast 509 586 35,000  Level Kansas City Center
21:14 39.1208 -89.4389 51° Northeast 514 592 35,000  Level Kansas City Center
21:15 39.2050 -89.3300 45° Northeast 512 589 35,000  Level Kansas City Center
21:16 39.3144 -89.1617 50° Northeast 512 589 35,000  Level Kansas City Center
21:17 39.4047 -89.0214 50° Northeast 510 587 35,000  Level Kansas City Center
21:18 39.4881 -88.9108 46° Northeast 507 583 35,000  Level Kansas City Center
21:19 39.5922 -88.7386 52° Northeast 507 583 35,000  Level Kansas City Center
21:20 39.6864 -88.6031 48° Northeast 507 583 35,000  Level Kansas City Center
21:22 39.8303 -88.3794 50° Northeast 504 580 35,000  Level Kansas City Center
21:23 39.9017 -88.2656 51° Northeast 510 587 35,000  Level Chicago Center
21:24 40.0075 -88.1181 47° Northeast 507 583 35,000  Level Chicago Center
21:25 40.0958 -87.9708 52° Northeast 513 590 35,000  Level Chicago Center
21:26 40.1858 -87.8311 50° Northeast 507 583 35,000  Level Indianapolis Center
21:27 40.2803 -87.6947 48° Northeast 506 582 35,000  Level Indianapolis Center
21:28 40.3642 -87.5447 54° Northeast 509 586 35,000  Level Indianapolis Center
21:29 40.4592 -87.4089 47° Northeast 505 581 35,000  Level Indianapolis Center
21:30 40.5486 -87.2692 50° Northeast 502 578 35,000  Level Indianapolis Center
21:31 40.6331 -87.1211 53° Northeast 506 582 35,000  Level Indianapolis Center
21:32 40.7044 -86.9639 59° Northeast 511 588 35,000  Level Indianapolis Center
21:33 40.7469 -86.7619 74° East 508 585 35,000 -180 Level Chicago Center
21:34 40.8050 -86.5900 66° East 515 593 34,700 -780 Descending Chicago Center
21:35 40.8667 -86.4161 65° Northeast 522 601 33,500 -1,320 Descending Chicago Center
21:36 40.9197 -86.2292 69° East 538 619 32,100 -1,620 Descending Chicago Center
21:37 40.9861 -86.0558 63° Northeast 530 610 30,300 -1,860 Descending Chicago Center
21:38 41.0428 -85.8800 67° East 521 600 28,400 -2,160 Descending Chicago Center
21:39 41.1108 -85.7250 60° Northeast 498 573 26,000 -1,980 Descending Chicago Center
21:40 41.1978 -85.5992 47° Northeast 467 537 24,400 -1,680 Descending Chicago Center
21:41 41.2797 -85.4278 57° Northeast 460 529 22,600 -1,380 Descending Chicago Center
21:42 41.3528 -85.2906 55° Northeast 461 531 21,600 -840 Descending Chicago Center
21:43 41.4292 -85.1656 51° Northeast 446 513 21,000 -360 Descending Chicago Center
21:44 41.4961 -85.0283 57° Northeast 447 514 20,900 -1,020 Descending Chicago Center
21:45 41.5653 -84.8917 56° Northeast 449 517 19,000 -2,160 Descending Chicago Center
21:46 41.6397 -84.7722 50° Northeast 426 490 16,600 -2,640 Descending Chicago Center
21:47 41.6706 -84.7200 52° Northeast 426 490 15,500 -2,700 Descending Cleveland Center
21:48 41.7311 -84.5986 56° Northeast 413 475 13,100 -2,340 Descending Cleveland Center
21:49 41.7936 -84.4800 55° Northeast 396 456 10,900 -1,860 Descending Cleveland Center
21:49 41.8136 -84.4478 50° Northeast 377 434 10,700 -720 Descending Cleveland Center
21:50 41.8475 -84.3661 61° Northeast 376 433 10,200 -600 Descending Cleveland Center
21:50 41.8653 -84.3336 54° Northeast 346 398 10,100 -300 Descending Cleveland Center
21:51 41.8939 -84.2850 52° Northeast 356 410 9,900  Descending Cleveland Center
21:51 41.9206 -84.2364 54° Northeast 320 368 10,100 60 Climbing Cleveland Center
21:52 41.9450 -84.1847 58° Northeast 320 368 10,000  Descending Cleveland Center
21:52 41.9672 -84.1469 52° Northeast 297 342 10,100  Climbing Cleveland Center
21:53 42.0000 -84.0983 48° Northeast 306 352 10,000 -540 Descending Cleveland Center
21:53 42.0239 -84.0606 50° Northeast 302 348 9,600 -1,320 Descending Cleveland Center
21:54 42.0464 -84.0058 61° Northeast 296 341 8,700 -1,620 Descending Cleveland Center
21:54 42.0625 -83.9564 66° East 296 341 8,000 -1,860 Descending Cleveland Center
21:55 42.1006 -83.8633 61° Northeast 287 330 6,200 -1,740 Descending Cleveland Center
21:56 42.1161 -83.7547 79° East 293 337 4,500 -1,560 Descending Cleveland Center
21:57 42.1375 -83.6664 72° East 239 275 3,100 -1,200 Descending Cleveland Center
21:58 42.1739 -83.6233 41° Northeast 161 185 2,100 -840 Descending Cleveland Center
21:59 42.2086 -83.5772 45° Northeast 137 158 1,400 -660 Descending Cleveland Center
22:01 42.2333 -83.5167 62° Northeast  Level FlightAware Approximate
22:08 42.2393 -83.5310 62° Northeast  Level Estimated